Terminal Aerodrome Forecast
Issued by NWS

Home | Current Version | Previous Version | Text Only | Print | Product List | Glossary On
Versions: 1 2 3 4 5 6 7 8 9 10 11 12 13 14 15 16 17 18
789
FTUS46 KHNX 141837 AAA
TAFMER
TAF AMD
KMER 141837Z 1419/1518 32008KT P6SM BKN070
     FM142000 32011G15KT P6SM SCT070 BKN200
     FM150300 26003KT 4SM BR SKC
     FM150600 00000KT 2SM BR SKC
      TEMPO 1508/1512 3/4SM BR
     FM151200 00000KT 3/4SM BR SCT200
      TEMPO 1512/1516 1/4SM FG VV001
     FM151700 VRB03KT 3SM BR SCT200=

USA.gov is the U.S. government's official web portal to all federal, state and local government web resources and services.